Saint-Sauveur, Quebec

10:55 AM EDT on July 04, 2015 (GMT -0400)
Morin-Heights | | Change Station
CLOSE
Current Station
Personal Weather Station
Location: Morin-Heights, QUEBEC
Elevation: 1086 ft
Nearby Weather Stations

Elev 1086 ft 45.92 °N, 74.24 °W | Updated 8 minutes ago

Mostly Cloudy
Mostly Cloudy
72.1 °F
Feels Like 76 °F
N
0.0
Wind Variable Wind from WSW

Today is forecast to be nearly the same temperature as yesterday.

Today
High -- | Low -- °F
--% Chance of Precip.
Yesterday
High -- | Low -- °F
Precip. -- in
5:11 AM 8:49 PM
Waning Gibbous, 92% visible
Pressure 29.96 in
Visibility 35.0 miles
Clouds Few 18000 ft
Mostly Cloudy 25000 ft
Heat Index 76 °F
Dew Point 34 °F
Humidity 25%
Rainfall 0.00 in
Snow Depth Not available.
UV 4 out of 12
Pollen Not available.
Air Quality Not available.
Flu Activity Not available.
METAR CYMX 041400Z 17004KT 150V220 35SM FEW180 BKN250 19/14 A2996 RMK CC2CI5 SLP145 DENSITY ALT 700FT

More Conditions Fewer Conditions

Pressure 29.96 in
Visibility 35.0 miles
Clouds Few 18000 ft
Mostly Cloudy 25000 ft
Heat Index 76 °F
Dew Point 34 °F
Humidity 25%
Rainfall 0.00 in
Snow Depth Not available.
UV 4 out of 12
Pollen Not available.
Air Quality Not available.
Flu Activity Not available.
METAR CYMX 041400Z 17004KT 150V220 35SM FEW180 BKN250 19/14 A2996 RMK CC2CI5 SLP145 DENSITY ALT 700FT

More Conditions Fewer Conditions

10-Day Weather Forecast

×

Almanac

Astronomy

Jul. 04, 2015 Rise Set
Actual Time
Civil Twilight
Nautical Twilight
Astronomical Twilight
Moon
Length of Visible Light
Length of Day
Tomorrow will be .
, % of the Moon is Illuminated

Today's Extremes

Country Highs Country Lows

Community

WunderPhotos

Upload Photos

1,834,982 photos uploaded!

WunderBlogs® & News

Nearby

Air Quality

  Air Quality AQ Index Pollutant
Not available.

Snow Depth

Station Depth Elevation

Earthquake Activity

City Distance Mag. Time & Date
Minimum magnitude displayed is 2.5.

Coastal Water Temperatures

Place Temperature

Stations

Nearby Weather Stations

Station Location Temp. Windchill Dew Point Humidity Wind Precip. Elev Updated Type